Time;durP1;ratioP1;P1;durP2;ratioP2;P2;SDS_P1;SDS_P2;PMS_P1;PMS_P2;Temp;Humidity;BMP_temperature;BMP_pressure;BME280_temperature;BME280_humidity;BME280_pressure;Samples;Min_cycle;Max_cycle;Signal;HPM_P1;HPM_P2
2023/07/17 00:00:51;;;;;;;4.13;1.85;;;19.10;72.70;;;;;;5050975;28;20021;-69
2023/07/17 00:03:17;;;;;;;3.30;1.73;;;19.10;73.20;;;;;;5049556;28;20475;-69
2023/07/17 00:05:42;;;;;;;3.75;1.77;;;19.00;73.60;;;;;;5050889;28;20025;-69
2023/07/17 00:08:10;;;;;;;4.07;1.70;;;19.00;74.50;;;;;;5031767;28;20027;-69
2023/07/17 00:10:38;;;;;;;3.45;1.83;;;19.00;73.90;;;;;;5049233;28;20025;-69
2023/07/17 00:13:04;;;;;;;4.20;1.80;;;19.00;74.00;;;;;;5049404;28;20033;-69
2023/07/17 00:15:29;;;;;;;3.38;1.98;;;19.00;74.40;;;;;;5048880;28;20573;-69
2023/07/17 00:17:55;;;;;;;3.15;2.10;;;18.90;74.60;;;;;;5051011;28;20028;-69
2023/07/17 00:20:21;;;;;;;2.70;2.00;;;18.90;74.70;;;;;;5048956;28;20111;-70
2023/07/17 00:22:46;;;;;;;3.35;1.88;;;18.90;74.90;;;;;;5049190;28;20052;-69
2023/07/17 00:25:12;;;;;;;4.90;2.35;;;18.90;75.00;;;;;;5049680;28;20029;-69
2023/07/17 00:27:37;;;;;;;3.17;2.10;;;18.80;75.30;;;;;;5050853;28;20021;-69
2023/07/17 00:30:03;;;;;;;3.42;2.10;;;18.80;75.30;;;;;;5049452;28;20033;-69
2023/07/17 00:32:29;;;;;;;3.92;1.70;;;18.80;75.50;;;;;;5048328;28;20023;-69
2023/07/17 00:34:55;;;;;;;3.55;2.00;;;18.80;75.70;;;;;;5048470;28;20035;-69
2023/07/17 00:37:20;;;;;;;3.38;1.98;;;18.80;76.00;;;;;;5031238;28;20710;-69
2023/07/17 00:39:46;;;;;;;3.30;1.90;;;18.80;76.10;;;;;;5048972;28;20661;-69
2023/07/17 00:42:11;;;;;;;4.10;2.15;;;18.80;76.20;;;;;;5048971;28;20084;-69
2023/07/17 00:44:38;;;;;;;4.10;2.17;;;18.70;76.30;;;;;;5048896;28;20029;-69
2023/07/17 00:47:05;;;;;;;3.28;1.80;;;18.70;76.60;;;;;;5049008;28;20056;-69
2023/07/17 00:49:31;;;;;;;3.50;2.10;;;18.70;76.80;;;;;;5048930;28;20017;-69
2023/07/17 00:51:59;;;;;;;2.88;1.95;;;18.70;76.80;;;;;;5048966;28;20129;-69
2023/07/17 00:54:26;;;;;;;3.60;2.17;;;18.70;76.80;;;;;;5048825;28;20494;-69
2023/07/17 00:56:53;;;;;;;4.00;2.20;;;18.70;76.90;;;;;;5046080;28;20064;-69
2023/07/17 00:59:19;;;;;;;3.70;2.15;;;18.60;77.00;;;;;;5032674;28;20078;-69
2023/07/17 01:01:46;;;;;;;5.00;2.22;;;18.60;77.20;;;;;;5048742;28;20095;-69
2023/07/17 01:04:11;;;;;;;3.50;2.30;;;18.60;77.40;;;;;;5049516;28;20045;-68
2023/07/17 01:06:38;;;;;;;3.67;2.25;;;18.60;77.40;;;;;;5050427;28;20078;-68
2023/07/17 01:09:06;;;;;;;4.93;2.28;;;18.50;77.70;;;;;;5052550;28;20021;-69
2023/07/17 01:11:32;;;;;;;3.58;2.33;;;18.40;77.80;;;;;;5052715;28;20084;-69
2023/07/17 01:13:58;;;;;;;4.15;2.30;;;18.50;78.00;;;;;;5053821;28;20029;-69
2023/07/17 01:16:23;;;;;;;4.25;2.13;;;18.40;78.10;;;;;;5036981;28;20412;-68
2023/07/17 01:18:49;;;;;;;5.20;2.13;;;18.30;78.30;;;;;;5052754;28;20033;-69
2023/07/17 01:21:19;;;;;;;5.88;2.95;;;18.30;78.70;;;;;;5053169;28;20036;-69
2023/07/17 01:23:45;;;;;;;4.38;2.60;;;18.20;79.60;;;;;;5052954;28;20025;-69
2023/07/17 01:26:11;;;;;;;4.18;2.58;;;18.20;79.70;;;;;;5052210;28;20025;-68
2023/07/17 01:28:37;;;;;;;5.43;2.60;;;18.20;80.30;;;;;;5052127;28;20483;-69
2023/07/17 01:31:03;;;;;;;5.47;3.10;;;18.20;79.90;;;;;;5052464;28;20119;-68
2023/07/17 01:33:29;;;;;;;4.18;2.22;;;18.20;80.20;;;;;;5053190;28;20088;-67
2023/07/17 01:35:54;;;;;;;4.90;2.65;;;18.10;80.30;;;;;;5051653;28;20353;-68
2023/07/17 01:38:20;;;;;;;3.55;2.67;;;18.10;80.60;;;;;;5053526;28;20029;-68
2023/07/17 01:40:45;;;;;;;3.70;2.30;;;18.10;80.60;;;;;;5053466;28;20025;-68
2023/07/17 01:43:11;;;;;;;5.72;2.83;;;18.10;80.70;;;;;;5051704;28;20100;-68
2023/07/17 01:45:36;;;;;;;5.03;2.83;;;18.10;81.00;;;;;;5052048;28;20025;-68
2023/07/17 01:48:02;;;;;;;4.03;2.60;;;18.10;81.30;;;;;;5051867;28;20664;-68
2023/07/17 01:50:27;;;;;;;5.30;2.88;;;18.00;81.30;;;;;;5054021;28;20100;-68
2023/07/17 01:52:53;;;;;;;4.55;2.60;;;18.00;81.30;;;;;;5053216;28;20059;-67
2023/07/17 01:55:18;;;;;;;5.60;2.90;;;18.10;81.40;;;;;;5034240;28;20083;-67
2023/07/17 01:57:44;;;;;;;4.07;2.58;;;18.00;81.80;;;;;;5051300;28;20082;-68
2023/07/17 02:00:12;;;;;;;5.07;2.92;;;17.90;81.90;;;;;;5055648;28;20032;-68
2023/07/17 02:02:38;;;;;;;6.85;3.13;;;17.90;82.30;;;;;;5051610;28;20040;-68
2023/07/17 02:05:04;;;;;;;4.95;2.80;;;17.90;82.50;;;;;;5052663;28;20032;-68
2023/07/17 02:07:29;;;;;;;7.20;2.80;;;17.90;82.80;;;;;;5050123;28;20472;-68
2023/07/17 02:09:55;;;;;;;5.30;2.88;;;17.80;82.90;;;;;;5054519;28;20510;-68
2023/07/17 02:12:20;;;;;;;4.53;2.85;;;17.80;83.00;;;;;;5052304;28;20549;-68
2023/07/17 02:14:46;;;;;;;4.50;2.80;;;17.80;83.00;;;;;;5053904;28;20071;-68
2023/07/17 02:17:11;;;;;;;4.28;2.80;;;17.80;83.00;;;;;;5034655;28;20048;-68
2023/07/17 02:19:37;;;;;;;5.28;2.55;;;17.80;83.20;;;;;;5051334;28;20442;-68
2023/07/17 02:22:03;;;;;;;6.47;3.10;;;17.80;83.20;;;;;;5050878;28;20102;-69
2023/07/17 02:24:29;;;;;;;4.72;2.75;;;17.70;83.30;;;;;;5051175;28;20017;-68
2023/07/17 02:26:55;;;;;;;5.78;3.40;;;17.70;83.40;;;;;;5049205;28;20040;-68
2023/07/17 02:29:22;;;;;;;4.80;3.00;;;17.70;83.50;;;;;;5050839;28;20029;-68
2023/07/17 02:31:48;;;;;;;6.05;3.05;;;17.70;83.80;;;;;;5050356;28;20029;-67
2023/07/17 02:34:13;;;;;;;3.95;2.75;;;17.60;83.70;;;;;;5054662;28;20380;-67
2023/07/17 02:36:39;;;;;;;5.57;3.33;;;17.70;83.70;;;;;;5050779;28;20028;-68
2023/07/17 02:39:04;;;;;;;4.05;2.42;;;17.70;83.80;;;;;;5052997;28;20032;-68
2023/07/17 02:41:30;;;;;;;4.32;2.22;;;17.60;83.80;;;;;;5050354;28;20037;-68
2023/07/17 02:43:55;;;;;;;4.18;2.80;;;17.70;83.60;;;;;;5052469;28;20506;-68
2023/07/17 02:46:21;;;;;;;5.97;2.88;;;17.60;83.60;;;;;;5050566;28;20387;-68
2023/07/17 02:48:46;;;;;;;4.78;2.60;;;17.60;83.60;;;;;;5050730;28;20452;-68
2023/07/17 02:51:12;;;;;;;6.70;2.70;;;17.60;83.70;;;;;;5052053;28;20028;-68
2023/07/17 02:53:38;;;;;;;5.05;2.70;;;17.60;83.80;;;;;;5052332;28;20021;-67
2023/07/17 02:56:03;;;;;;;5.18;2.95;;;17.50;83.80;;;;;;5050425;28;20104;-68
2023/07/17 02:58:29;;;;;;;6.57;3.30;;;17.50;83.90;;;;;;5049916;28;20039;-67
2023/07/17 03:00:54;;;;;;;5.85;3.10;;;17.40;84.20;;;;;;5049975;28;20067;-67
2023/07/17 03:03:20;;;;;;;5.47;2.83;;;17.40;84.30;;;;;;5050240;28;20028;-68
2023/07/17 03:05:46;;;;;;;4.65;2.90;;;17.40;84.40;;;;;;5053054;28;20060;-68
2023/07/17 03:08:11;;;;;;;3.90;2.35;;;17.40;84.30;;;;;;5050278;28;20519;-68
2023/07/17 03:10:37;;;;;;;6.05;2.90;;;17.40;84.40;;;;;;5052662;28;20032;-69
2023/07/17 03:13:03;;;;;;;3.75;2.40;;;17.40;84.40;;;;;;5050407;28;20100;-68
2023/07/17 03:15:29;;;;;;;4.20;2.60;;;17.40;84.40;;;;;;5049658;28;20025;-68
2023/07/17 03:17:54;;;;;;;3.55;2.60;;;17.30;84.50;;;;;;5050046;28;20025;-67
2023/07/17 03:20:20;;;;;;;4.80;2.80;;;17.20;84.60;;;;;;5049288;28;20074;-68
2023/07/17 03:22:46;;;;;;;4.32;2.65;;;17.20;84.80;;;;;;5049649;28;20025;-67
2023/07/17 03:25:11;;;;;;;3.90;2.53;;;17.20;84.90;;;;;;5050780;28;20483;-68
2023/07/17 03:27:37;;;;;;;5.40;2.70;;;17.20;84.90;;;;;;5049769;28;20032;-68
2023/07/17 03:30:04;;;;;;;5.00;2.80;;;17.20;85.00;;;;;;5051339;28;20200;-69
2023/07/17 03:32:33;;;;;;;4.80;2.50;;;17.20;85.10;;;;;;5049703;28;20029;-69
2023/07/17 03:34:58;;;;;;;5.40;2.92;;;17.10;85.00;;;;;;5049475;28;20033;-69
2023/07/17 03:37:24;;;;;;;5.18;2.72;;;17.10;85.30;;;;;;5049702;28;20033;-69
2023/07/17 03:39:49;;;;;;;5.57;3.13;;;17.10;85.20;;;;;;5064845;28;20029;-69
2023/07/17 03:42:15;;;;;;;5.50;2.63;;;17.00;85.30;;;;;;5049733;28;20036;-68
2023/07/17 03:44:40;;;;;;;5.28;2.67;;;17.00;85.40;;;;;;5064653;28;20558;-68
2023/07/17 03:47:06;;;;;;;5.75;2.35;;;17.00;85.50;;;;;;5049080;28;20056;-68
2023/07/17 03:49:32;;;;;;;3.85;2.47;;;17.00;85.40;;;;;;5052440;28;20054;-68
2023/07/17 03:52:00;;;;;;;5.10;3.00;;;17.00;85.40;;;;;;5051635;28;20525;-68
2023/07/17 03:54:27;;;;;;;5.88;2.70;;;17.00;85.40;;;;;;5049188;28;20108;-69
2023/07/17 03:56:52;;;;;;;6.47;3.00;;;17.00;85.60;;;;;;5050124;28;20818;-68
2023/07/17 03:59:25;;;;;;;4.25;2.70;;;17.00;85.60;;;;;;5048987;28;20096;-68
2023/07/17 04:01:51;;;;;;;5.05;2.65;;;17.00;85.70;;;;;;5047742;28;20029;-68
2023/07/17 04:04:17;;;;;;;5.22;2.85;;;17.00;85.60;;;;;;5050707;28;20070;-68
2023/07/17 04:06:42;;;;;;;6.07;3.00;;;17.00;85.50;;;;;;5051635;28;20017;-68
2023/07/17 04:09:09;;;;;;;5.10;2.70;;;16.90;85.70;;;;;;5048987;28;20116;-69
2023/07/17 04:11:35;;;;;;;5.53;2.75;;;16.90;85.70;;;;;;5050538;28;20158;-69
2023/07/17 04:14:00;;;;;;;4.78;2.65;;;16.90;85.70;;;;;;5049357;28;20054;-69
2023/07/17 04:16:26;;;;;;;4.07;2.60;;;16.90;85.80;;;;;;5049832;28;20021;-69
2023/07/17 04:18:52;;;;;;;5.50;2.85;;;17.00;85.60;;;;;;5048685;28;20760;-69
2023/07/17 04:21:19;;;;;;;5.10;3.00;;;17.00;85.50;;;;;;5064025;28;20025;-69
2023/07/17 04:23:48;;;;;;;4.78;2.75;;;16.90;85.70;;;;;;5049128;28;20552;-69
2023/07/17 04:26:14;;;;;;;4.72;2.67;;;16.90;85.70;;;;;;5049237;28;20017;-68
2023/07/17 04:28:40;;;;;;;5.95;2.90;;;16.90;85.80;;;;;;5048770;28;20040;-68
2023/07/17 04:31:05;;;;;;;6.45;2.88;;;16.90;85.70;;;;;;5049121;28;20032;-67
2023/07/17 04:33:32;;;;;;;6.90;3.40;;;17.00;85.70;;;;;;5048931;28;20704;-68
2023/07/17 04:35:58;;;;;;;6.05;3.13;;;16.90;85.80;;;;;;5048337;28;20506;-67
2023/07/17 04:38:23;;;;;;;5.72;3.35;;;16.90;85.90;;;;;;5048161;28;20021;-67
2023/07/17 04:40:49;;;;;;;6.40;2.97;;;16.90;85.90;;;;;;5043928;28;20787;-67
2023/07/17 04:43:14;;;;;;;5.55;2.47;;;16.90;85.80;;;;;;5046102;28;20155;-67
2023/07/17 04:45:43;;;;;;;7.22;3.35;;;17.00;85.70;;;;;;5048075;28;20025;-67
2023/07/17 04:48:09;;;;;;;7.10;3.38;;;17.00;85.60;;;;;;5028995;28;20028;-68
2023/07/17 04:50:35;;;;;;;5.57;2.92;;;17.00;85.50;;;;;;5046934;28;20032;-68
2023/07/17 04:53:00;;;;;;;8.13;3.25;;;17.10;85.40;;;;;;5047666;28;20064;-68
2023/07/17 04:55:26;;;;;;;6.03;3.40;;;17.10;85.40;;;;;;5048127;28;20028;-68
2023/07/17 04:57:51;;;;;;;6.93;3.50;;;17.10;85.30;;;;;;5048793;28;20392;-68
2023/07/17 05:00:17;;;;;;;6.03;3.08;;;17.10;85.30;;;;;;5063762;28;20021;-67
2023/07/17 05:02:43;;;;;;;6.03;3.33;;;17.00;85.40;;;;;;5046615;28;20150;-67
2023/07/17 05:05:09;;;;;;;6.82;3.80;;;17.10;85.40;;;;;;5048179;28;20025;-67
2023/07/17 05:07:35;;;;;;;6.20;3.40;;;17.30;85.50;;;;;;5049923;28;20029;-68
2023/07/17 05:10:00;;;;;;;6.88;3.50;;;17.80;84.30;;;;;;5047947;28;20025;-68
2023/07/17 05:12:26;;;;;;;6.80;3.67;;;18.40;82.20;;;;;;5050049;28;20032;-69
2023/07/17 05:14:51;;;;;;;5.63;3.13;;;18.90;79.90;;;;;;5048215;28;20114;-68
2023/07/17 05:17:17;;;;;;;7.43;3.92;;;19.40;78.00;;;;;;5047782;28;20085;-70
2023/07/17 05:19:43;;;;;;;5.68;3.42;;;19.80;75.70;;;;;;5047979;28;20060;-67
2023/07/17 05:22:08;;;;;;;5.25;3.10;;;20.10;74.20;;;;;;5048275;28;20038;-68
2023/07/17 05:24:34;;;;;;;6.40;3.17;;;20.30;72.90;;;;;;5029123;28;20570;-68
2023/07/17 05:26:59;;;;;;;5.95;2.85;;;20.70;71.90;;;;;;5047883;28;20021;-67
2023/07/17 05:29:25;;;;;;;5.28;3.20;;;21.00;70.80;;;;;;5047880;28;20021;-68
2023/07/17 05:31:50;;;;;;;5.40;3.17;;;21.20;69.80;;;;;;5063620;28;20076;-68
2023/07/17 05:34:16;;;;;;;7.57;3.38;;;21.50;68.70;;;;;;5048814;28;20094;-68
2023/07/17 05:36:42;;;;;;;5.93;3.20;;;21.70;67.90;;;;;;5048053;28;20029;-68
2023/07/17 05:39:07;;;;;;;6.93;3.47;;;22.10;67.10;;;;;;5046807;28;20029;-68
2023/07/17 05:41:33;;;;;;;7.80;3.60;;;22.20;66.10;;;;;;5047518;28;20028;-70
2023/07/17 05:43:58;;;;;;;6.68;4.05;;;22.10;65.60;;;;;;5046451;28;20060;-68
2023/07/17 05:46:25;;;;;;;7.93;3.75;;;22.30;65.20;;;;;;5046993;28;20053;-67
2023/07/17 05:48:50;;;;;;;9.35;3.72;;;22.20;64.90;;;;;;5048531;28;20017;-67
2023/07/17 05:51:16;;;;;;;10.43;4.72;;;22.20;64.60;;;;;;5047736;28;20108;-68
2023/07/17 05:53:41;;;;;;;9.88;4.05;;;22.30;64.40;;;;;;5050118;28;20104;-68
2023/07/17 05:56:07;;;;;;;8.38;3.97;;;22.50;64.20;;;;;;5051833;28;20029;-69
2023/07/17 05:58:33;;;;;;;8.30;4.43;;;22.50;63.90;;;;;;5058092;28;20070;-69
2023/07/17 06:00:58;;;;;;;7.40;4.07;;;22.60;63.70;;;;;;5053999;28;20060;-69
2023/07/17 06:03:24;;;;;;;7.10;4.20;;;22.60;63.50;;;;;;5055595;28;20090;-68
2023/07/17 06:05:49;;;;;;;8.93;4.70;;;22.70;63.60;;;;;;5059231;28;20158;-68
2023/07/17 06:08:15;;;;;;;6.15;3.75;;;22.70;63.30;;;;;;5065914;28;20089;-68
2023/07/17 06:10:42;;;;;;;7.25;4.05;;;22.80;63.50;;;;;;5052347;28;20025;-68
2023/07/17 06:13:08;;;;;;;6.28;3.75;;;22.80;63.40;;;;;;5059674;28;20057;-68
2023/07/17 06:15:34;;;;;;;9.43;4.82;;;23.00;63.30;;;;;;5052370;28;20102;-68
2023/07/17 06:18:00;;;;;;;8.27;4.38;;;23.10;63.10;;;;;;5056522;28;20489;-68
2023/07/17 06:20:26;;;;;;;10.00;4.93;;;23.10;62.90;;;;;;5072211;28;20028;-68
2023/07/17 06:22:51;;;;;;;9.55;4.80;;;23.10;62.80;;;;;;5056516;28;20029;-69
2023/07/17 06:25:17;;;;;;;8.65;4.68;;;23.00;62.70;;;;;;5072156;28;20037;-69
2023/07/17 06:27:43;;;;;;;10.82;5.75;;;23.00;63.10;;;;;;5058219;28;20028;-69
2023/07/17 06:30:10;;;;;;;10.32;5.70;;;22.90;62.70;;;;;;5047977;28;20116;-69
2023/07/17 06:32:35;;;;;;;10.93;5.75;;;22.50;63.10;;;;;;5051322;28;20159;-69
2023/07/17 06:35:01;;;;;;;9.43;5.13;;;22.20;63.80;;;;;;5050060;28;20162;-69
2023/07/17 06:37:27;;;;;;;8.50;4.53;;;21.70;65.20;;;;;;5052487;28;20039;-69
2023/07/17 06:39:52;;;;;;;9.45;4.97;;;21.70;65.70;;;;;;5051957;28;20095;-69
2023/07/17 06:42:18;;;;;;;9.70;5.22;;;21.50;66.20;;;;;;5052561;28;20044;-69
2023/07/17 06:44:43;;;;;;;10.10;5.43;;;21.20;66.50;;;;;;5052302;28;20023;-69
2023/07/17 06:47:09;;;;;;;8.88;5.25;;;21.00;67.10;;;;;;5062084;28;20489;-69
2023/07/17 06:49:34;;;;;;;8.38;4.90;;;21.00;67.40;;;;;;5059706;28;20029;-69
2023/07/17 06:52:00;;;;;;;12.00;5.07;;;20.90;67.60;;;;;;5061176;28;20488;-69
2023/07/17 06:54:26;;;;;;;11.35;5.10;;;20.90;67.80;;;;;;5043461;28;20120;-69
2023/07/17 06:56:51;;;;;;;12.50;5.97;;;20.80;68.10;;;;;;5058714;28;20043;-69
2023/07/17 06:59:17;;;;;;;14.30;7.15;;;20.70;68.20;;;;;;5051184;28;20025;-69
2023/07/17 07:01:43;;;;;;;11.40;5.53;;;20.50;68.40;;;;;;5047811;28;20033;-69
2023/07/17 07:04:08;;;;;;;9.95;5.43;;;20.40;69.00;;;;;;5052104;28;20074;-69
2023/07/17 07:06:35;;;;;;;11.60;5.32;;;20.50;69.30;;;;;;5054394;28;20039;-69
2023/07/17 07:09:01;;;;;;;11.93;5.80;;;20.60;69.30;;;;;;5054486;28;20143;-69
2023/07/17 07:11:26;;;;;;;12.27;6.00;;;20.60;69.20;;;;;;5046322;28;20071;-69
2023/07/17 07:13:52;;;;;;;8.85;4.80;;;20.50;69.40;;;;;;5047196;28;20076;-69
2023/07/17 07:16:18;;;;;;;12.07;4.90;;;20.40;69.50;;;;;;5047107;28;20017;-69
2023/07/17 07:18:44;;;;;;;10.60;5.13;;;20.40;69.80;;;;;;5055455;28;20428;-70
2023/07/17 07:21:09;;;;;;;9.43;5.18;;;20.50;69.70;;;;;;5047707;28;20021;-69
2023/07/17 07:23:35;;;;;;;9.55;4.57;;;20.60;69.40;;;;;;5051805;28;20116;-69
2023/07/17 07:26:00;;;;;;;9.35;5.03;;;20.50;69.50;;;;;;5053914;28;20478;-69
2023/07/17 07:28:26;;;;;;;12.18;6.03;;;20.40;69.50;;;;;;5058156;28;20075;-69
2023/07/17 07:30:57;;;;;;;9.77;5.40;;;20.30;69.70;;;;;;5063428;28;20036;-69
2023/07/17 07:33:23;;;;;;;11.05;5.22;;;20.30;69.80;;;;;;5051412;28;20374;-69
2023/07/17 07:35:48;;;;;;;10.45;5.63;;;20.30;69.90;;;;;;5050457;28;20021;-69
2023/07/17 07:38:14;;;;;;;8.73;5.00;;;20.20;69.80;;;;;;5058785;28;20384;-69
2023/07/17 07:40:40;;;;;;;8.65;5.20;;;20.40;69.90;;;;;;5047734;28;20032;-69
2023/07/17 07:43:05;;;;;;;10.55;5.00;;;20.70;69.50;;;;;;5034430;28;20557;-69
2023/07/17 07:45:31;;;;;;;9.68;5.25;;;20.90;69.60;;;;;;5063693;28;20091;-69
2023/07/17 07:47:58;;;;;;;8.48;5.10;;;20.90;67.90;;;;;;5042981;28;20305;-69
2023/07/17 07:50:23;;;;;;;9.48;4.40;;;20.80;67.60;;;;;;5047794;28;20746;-69
2023/07/17 07:52:49;;;;;;;9.25;4.38;;;20.80;67.70;;;;;;5034956;28;20032;-69
2023/07/17 07:55:15;;;;;;;10.40;4.85;;;20.90;67.80;;;;;;5052889;28;20021;-69
2023/07/17 07:57:40;;;;;;;8.07;4.22;;;21.10;67.40;;;;;;5050977;28;20491;-69
2023/07/17 08:00:07;;;;;;;12.52;4.88;;;21.20;66.90;;;;;;5039784;28;20388;-69
2023/07/17 08:02:32;;;;;;;9.32;4.65;;;21.10;66.80;;;;;;5050302;28;20084;-69
2023/07/17 08:04:58;;;;;;;8.88;4.95;;;21.00;66.80;;;;;;5051901;28;20125;-68
2023/07/17 08:07:23;;;;;;;8.00;3.90;;;21.10;66.50;;;;;;5032150;28;20476;-68
2023/07/17 08:09:49;;;;;;;7.40;3.95;;;21.20;66.00;;;;;;5049821;28;20484;-69
2023/07/17 08:12:14;;;;;;;8.95;4.50;;;21.20;66.00;;;;;;5049608;28;20111;-68
2023/07/17 08:14:40;;;;;;;5.05;3.28;;;21.20;65.40;;;;;;5050238;28;20040;-69
2023/07/17 08:17:06;;;;;;;7.50;3.72;;;21.30;65.60;;;;;;5048265;28;20032;-69
2023/07/17 08:19:31;;;;;;;7.03;3.92;;;21.50;65.30;;;;;;5046508;28;20036;-68
2023/07/17 08:21:57;;;;;;;8.48;3.67;;;21.80;64.90;;;;;;5045870;28;20503;-68
2023/07/17 08:24:22;;;;;;;8.00;3.58;;;21.80;63.90;;;;;;5051087;28;20070;-69
2023/07/17 08:26:48;;;;;;;7.07;3.65;;;21.90;63.80;;;;;;5035013;28;20020;-69
2023/07/17 08:29:13;;;;;;;6.88;3.28;;;22.10;63.60;;;;;;5053399;28;20027;-69
2023/07/17 08:31:40;;;;;;;8.07;3.97;;;22.20;63.50;;;;;;5050118;28;20391;-69
2023/07/17 08:34:06;;;;;;;5.97;3.13;;;22.20;62.70;;;;;;5052647;28;20383;-69
2023/07/17 08:36:32;;;;;;;6.72;4.20;;;22.30;62.40;;;;;;5049712;28;20028;-69
2023/07/17 08:38:58;;;;;;;5.55;3.30;;;22.30;61.30;;;;;;5052123;28;20040;-69
2023/07/17 08:41:24;;;;;;;7.20;3.67;;;22.00;61.30;;;;;;5043309;28;20032;-69
2023/07/17 08:43:50;;;;;;;9.50;4.45;;;22.00;61.80;;;;;;5052718;28;20017;-69
2023/07/17 08:46:16;;;;;;;7.78;3.90;;;21.90;61.80;;;;;;5050760;28;20064;-68
2023/07/17 08:48:43;;;;;;;8.82;4.13;;;21.80;61.40;;;;;;5053482;28;20045;-68
2023/07/17 08:51:11;;;;;;;7.13;3.25;;;21.80;61.50;;;;;;5051835;28;20032;-68
2023/07/17 08:53:40;;;;;;;7.13;3.33;;;21.80;61.90;;;;;;5049648;28;20025;-68
2023/07/17 08:56:07;;;;;;;7.65;3.20;;;21.70;62.40;;;;;;5048919;28;20119;-67
2023/07/17 08:58:33;;;;;;;5.45;3.10;;;21.80;63.00;;;;;;5048474;28;20082;-68
2023/07/17 09:01:00;;;;;;;10.75;3.92;;;22.10;62.80;;;;;;5042098;28;20029;-68
2023/07/17 09:03:26;;;;;;;5.78;2.90;;;22.10;61.60;;;;;;5046862;28;20467;-68
2023/07/17 09:05:52;;;;;;;6.00;3.20;;;22.20;61.70;;;;;;5043973;28;20357;-68
2023/07/17 09:08:17;;;;;;;6.72;3.50;;;22.50;61.50;;;;;;5049937;28;20031;-68
2023/07/17 09:10:43;;;;;;;6.53;3.45;;;22.60;60.80;;;;;;5051660;28;20079;-68
2023/07/17 09:13:09;;;;;;;5.75;2.60;;;22.70;59.90;;;;;;5047628;28;20028;-68
2023/07/17 09:15:35;;;;;;;6.68;2.88;;;22.70;59.80;;;;;;5051926;28;20025;-68
2023/07/17 09:18:03;;;;;;;9.18;3.55;;;22.90;60.10;;;;;;5052340;28;20021;-68
2023/07/17 09:20:28;;;;;;;6.15;3.00;;;23.00;59.20;;;;;;5048981;28;20044;-68
2023/07/17 09:22:58;;;;;;;6.03;2.75;;;22.90;58.50;;;;;;5052356;28;20017;-68
2023/07/17 09:25:28;;;;;;;8.00;3.08;;;22.90;58.70;;;;;;5067947;28;20028;-68
2023/07/17 09:27:54;;;;;;;6.80;3.15;;;22.90;58.60;;;;;;5055606;28;20029;-68
2023/07/17 09:30:22;;;;;;;5.60;3.10;;;22.80;58.20;;;;;;5054269;28;20087;-68
2023/07/17 09:32:49;;;;;;;5.32;2.75;;;22.90;58.40;;;;;;5053275;28;20557;-68
2023/07/17 09:35:20;;;;;;;5.00;2.70;;;22.90;58.40;;;;;;5059895;28;20492;-68
2023/07/17 09:37:46;;;;;;;7.22;2.70;;;22.90;57.90;;;;;;5052472;28;20060;-68
2023/07/17 09:40:15;;;;;;;6.18;2.80;;;22.90;58.30;;;;;;5053500;28;20033;-68
2023/07/17 09:42:43;;;;;;;5.35;2.47;;;23.10;57.80;;;;;;5052992;28;20097;-68
2023/07/17 09:45:14;;;;;;;6.38;2.45;;;23.10;57.10;;;;;;5043277;28;20029;-68
2023/07/17 09:47:41;;;;;;;3.85;2.28;;;23.20;57.20;;;;;;5052988;28;20028;-67
2023/07/17 09:50:07;;;;;;;4.65;2.70;;;23.30;56.70;;;;;;5070512;28;20024;-67
2023/07/17 09:52:34;;;;;;;7.22;2.38;;;23.40;56.20;;;;;;5059604;28;20052;-69
2023/07/17 09:55:03;;;;;;;6.43;2.75;;;23.40;56.00;;;;;;5053740;28;20051;-68
2023/07/17 09:57:37;;;;;;;5.82;2.20;;;23.30;55.90;;;;;;5052181;28;20300;-68
2023/07/17 10:00:17;;;;;;;6.65;2.60;;;23.30;56.30;;;;;;5054780;28;20480;-68
2023/07/17 10:03:05;;;;;;;4.47;2.13;;;23.30;56.10;;;;;;5054267;28;20419;-68
2023/07/17 10:05:32;;;;;;;4.88;2.20;;;23.30;56.20;;;;;;5050517;28;20025;-68
2023/07/17 10:07:59;;;;;;;5.40;2.35;;;23.40;56.40;;;;;;5053473;28;20060;-68
2023/07/17 10:10:25;;;;;;;5.63;2.50;;;23.30;55.90;;;;;;5053699;28;20036;-68
2023/07/17 10:12:51;;;;;;;5.30;2.17;;;23.20;56.00;;;;;;5059140;28;20020;-68
2023/07/17 10:15:17;;;;;;;4.70;2.08;;;23.00;56.10;;;;;;5054685;28;20024;-68
2023/07/17 10:17:43;;;;;;;6.25;2.28;;;22.90;56.50;;;;;;5036907;28;20031;-68
2023/07/17 10:20:10;;;;;;;5.70;2.83;;;22.80;56.90;;;;;;5051912;28;20506;-68
2023/07/17 10:22:40;;;;;;;5.15;2.30;;;22.60;56.90;;;;;;5055117;28;20035;-68
2023/07/17 10:25:18;;;;;;;6.03;2.17;;;22.50;57.30;;;;;;5056108;28;20112;-68
2023/07/17 10:28:01;;;;;;;7.38;2.60;;;22.40;57.70;;;;;;5054007;28;20506;-68
2023/07/17 10:30:31;;;;;;;5.07;2.40;;;22.30;58.10;;;;;;5032970;28;20040;-69
2023/07/17 10:33:11;;;;;;;5.10;2.30;;;22.30;58.20;;;;;;5052470;28;20028;-69
2023/07/17 10:35:48;;;;;;;6.90;2.45;;;22.40;58.40;;;;;;5050526;28;20109;-69
2023/07/17 10:38:18;;;;;;;7.25;2.63;;;22.30;58.50;;;;;;5033251;28;20380;-69
2023/07/17 10:40:45;;;;;;;5.40;2.65;;;22.40;58.50;;;;;;5051963;28;20021;-69
2023/07/17 10:43:18;;;;;;;4.82;2.10;;;22.40;58.60;;;;;;5051062;28;20116;-69
2023/07/17 10:45:46;;;;;;;3.78;1.77;;;22.30;58.10;;;;;;5052147;28;20013;-69
2023/07/17 10:48:12;;;;;;;3.45;1.70;;;22.10;58.00;;;;;;5055887;28;20020;-68
2023/07/17 10:50:46;;;;;;;2.97;1.35;;;21.90;58.80;;;;;;5050248;28;20033;-69
2023/07/17 10:53:11;;;;;;;2.42;1.38;;;21.50;59.50;;;;;;5057484;28;20074;-68
2023/07/17 10:55:37;;;;;;;2.97;1.27;;;21.20;60.70;;;;;;5050854;28;20045;-68
2023/07/17 10:58:02;;;;;;;3.10;1.23;;;20.90;62.30;;;;;;5038335;28;20128;-68
2023/07/17 11:00:28;;;;;;;2.83;1.50;;;20.70;63.40;;;;;;5039315;28;20032;-69
2023/07/17 11:02:57;;;;;;;2.30;1.27;;;20.60;64.30;;;;;;5051476;28;20031;-70
2023/07/17 11:05:23;;;;;;;2.42;1.50;;;20.60;65.50;;;;;;5053554;28;20101;-69
2023/07/17 11:07:49;;;;;;;1.73;0.90;;;20.60;65.80;;;;;;5054694;28;20025;-69
2023/07/17 11:10:14;;;;;;;1.90;1.10;;;20.70;66.40;;;;;;5053030;28;20029;-70
2023/07/17 11:12:41;;;;;;;2.65;1.10;;;20.90;66.50;;;;;;5055692;28;20078;-70
2023/07/17 11:15:14;;;;;;;2.42;1.20;;;21.10;66.60;;;;;;5051250;28;20036;-70
2023/07/17 11:17:40;;;;;;;3.10;1.30;;;21.30;66.70;;;;;;5052687;28;20163;-70
2023/07/17 11:20:07;;;;;;;2.75;1.30;;;21.40;66.10;;;;;;5051779;28;20088;-68
2023/07/17 11:22:32;;;;;;;2.05;1.20;;;21.50;65.50;;;;;;5034347;28;20025;-69
2023/07/17 11:24:58;;;;;;;2.65;1.42;;;21.60;65.60;;;;;;5049209;28;20078;-69
2023/07/17 11:27:24;;;;;;;2.38;1.25;;;21.70;65.60;;;;;;5052253;28;20029;-69
2023/07/17 11:29:50;;;;;;;4.25;1.40;;;21.90;65.80;;;;;;5051602;28;20040;-70
2023/07/17 11:32:19;;;;;;;2.95;1.50;;;22.10;65.70;;;;;;5052104;28;20017;-68
2023/07/17 11:34:59;;;;;;;3.35;1.85;;;22.30;65.20;;;;;;5037846;28;20025;-69
2023/07/17 11:37:35;;;;;;;3.97;1.83;;;22.40;64.90;;;;;;5052874;28;20127;-69
2023/07/17 11:40:08;;;;;;;4.97;1.75;;;22.40;64.50;;;;;;5053650;28;20029;-69
2023/07/17 11:42:56;;;;;;;3.10;1.65;;;22.50;64.30;;;;;;5034439;28;20033;-69
2023/07/17 11:45:25;;;;;;;4.65;2.33;;;22.50;64.50;;;;;;5052323;28;20025;-68
2023/07/17 11:47:56;;;;;;;5.15;2.10;;;22.70;64.50;;;;;;5048869;28;20215;-68
2023/07/17 11:50:26;;;;;;;3.78;1.80;;;22.90;63.90;;;;;;5051331;28;20025;-69
2023/07/17 11:53:11;;;;;;;4.13;1.40;;;22.90;63.50;;;;;;5051840;28;20445;-69
2023/07/17 11:55:38;;;;;;;3.53;1.38;;;22.90;63.40;;;;;;5045343;28;20064;-68
2023/07/17 11:58:18;;;;;;;5.20;1.80;;;23.00;63.60;;;;;;5048028;28;20044;-69
2023/07/17 12:00:46;;;;;;;3.28;1.67;;;23.00;63.40;;;;;;5037589;28;20036;-68
2023/07/17 12:03:11;;;;;;;3.10;1.55;;;23.00;63.50;;;;;;5052321;28;20108;-69
2023/07/17 12:05:37;;;;;;;3.45;1.98;;;22.90;63.70;;;;;;5052379;28;20066;-69
2023/07/17 12:08:03;;;;;;;3.53;1.75;;;22.80;63.90;;;;;;5052408;28;20502;-69
2023/07/17 12:10:29;;;;;;;3.60;1.48;;;22.70;64.00;;;;;;5052518;28;20093;-69
2023/07/17 12:12:55;;;;;;;5.43;2.10;;;22.60;64.40;;;;;;5051119;28;20029;-68
2023/07/17 12:15:22;;;;;;;4.63;2.40;;;22.60;64.60;;;;;;5049888;28;20094;-69
2023/07/17 12:17:48;;;;;;;4.55;2.38;;;22.40;64.90;;;;;;5051846;28;20082;-68
2023/07/17 12:20:15;;;;;;;4.35;2.50;;;22.30;65.20;;;;;;5048048;28;20025;-68
2023/07/17 12:22:41;;;;;;;6.20;2.60;;;22.20;65.50;;;;;;5051109;28;20529;-68
2023/07/17 12:25:08;;;;;;;4.68;2.55;;;22.00;65.70;;;;;;5049700;28;20036;-69
2023/07/17 12:27:33;;;;;;;5.20;2.35;;;22.00;66.10;;;;;;5050498;28;20021;-69
2023/07/17 12:29:59;;;;;;;5.20;2.38;;;22.00;66.20;;;;;;5052268;28;20029;-68
2023/07/17 12:32:25;;;;;;;5.72;2.33;;;22.10;66.60;;;;;;5048539;28;20096;-69
2023/07/17 12:34:50;;;;;;;4.70;2.50;;;22.20;66.60;;;;;;5052107;28;20115;-68
2023/07/17 12:37:16;;;;;;;3.95;2.20;;;22.30;66.10;;;;;;5047874;28;20408;-68
2023/07/17 12:39:42;;;;;;;4.90;2.60;;;22.40;65.90;;;;;;5051766;28;20025;-68
2023/07/17 12:42:07;;;;;;;5.45;2.90;;;22.30;65.30;;;;;;5050825;28;20036;-68